Raven — WUT9940 — position and weather

sailwx.info

Track history (hours):
 
Tides and Currents Weather Stations Pressure Air Temp Water Temp Dewpoint Dewpoint Depression Visibility Wind Speed Wind Dir Waves Ship Positions

Raven

Owner: RAVEN ENTERPRISES, NEWPORT, OR. More information available from US FCC via Universal Licensing System and Coast Guard Vessel Documentation Center.

Last reported at 2018-Jan-10 07:33 UTC. Time now 2018-Feb-24 00:55 UTC.
Position N 46°01' W 125°37'.
Warning: this ship's position is 44 days out of date.

MMSI: 367773988.

Date/timePositionNaut miles runAvg speedWind from/ knotsBaromVisibWave heightAir tempDewpointWater temp
2018-Jan-10 07:33N 46°01' W 125°37'1 8.9
2018-Jan-10 07:26N 46°01' W 125°36'4 8.9
2018-Jan-10 06:58N 45°57' W 125°32'4 8.9
2018-Jan-10 06:29N 45°54' W 125°28'4 8.7
2018-Jan-10 06:00N 45°51' W 125°25'4 8.5
2018-Jan-10 05:30N 45°48' W 125°21'4 8.4
2018-Jan-10 05:00N 45°44' W 125°17'4 8.1
2018-Jan-10 04:30N 45°41' W 125°13'4 7.6
2018-Jan-10 04:00N 45°38' W 125°10'4 7.6
2018-Jan-10 03:30N 45°36' W 125°06'7 7.8
2018-Jan-10 02:33N 45°30' W 124°59'0 7.7
2018-Jan-10 02:30N 45°29' W 124°59'4 8.1
2018-Jan-10 02:00N 45°26' W 124°55'6 9.1
2018-Jan-10 01:22N 45°22' W 124°50'14 9.3
2018-Jan-09 23:51N 45°11' W 124°37'3 8.0
2018-Jan-09 23:30N 45°09' W 124°35'4 7.6
2018-Jan-09 22:58N 45°06' W 124°31'4 7.8
2018-Jan-09 22:27N 45°03' W 124°28'  
2018-Jan-03 00:43N 44°37' W 124°05'2 8.1
2018-Jan-03 00:29N 44°37' W 124°07'9 9.5
2018-Jan-02 23:32N 44°42' W 124°18'1 9.2
2018-Jan-02 23:25N 44°43' W 124°19'3 7.0
2018-Jan-02 22:58N 44°44' W 124°23'1 2.9
2018-Jan-02 22:31N 44°45' W 124°25'1 1.4
2018-Jan-02 22:00N 44°45' W 124°24'1 1.3
2018-Jan-02 21:31N 44°46' W 124°24'1 1.8
2018-Jan-02 21:00N 44°45' W 124°24'2 3.2
2018-Jan-02 20:31N 44°45' W 124°22'5 8.6
2018-Jan-02 19:59N 44°42' W 124°16'510.1
2018-Jan-02 19:30N 44°39' W 124°11'5 9.8
2018-Jan-02 18:58N 44°37' W 124°05'  
Track history (hours):
 
Tides and Currents Weather Stations Pressure Air Temp Water Temp Dewpoint Dewpoint Depression Visibility Wind Speed Wind Dir Waves Ship Positions

Raven

Owner: RAVEN ENTERPRISES, NEWPORT, OR. More information available from US FCC via Universal Licensing System and Coast Guard Vessel Documentation Center.

Last reported at 2018-Jan-10 07:33 UTC. Time now 2018-Feb-24 00:55 UTC.
Position N 46°01' W 125°37'.
Warning: this ship's position is 44 days out of date.

MMSI: 367773988.

Date/timePositionNaut miles runAvg speedWind from/ knotsBaromVisibWave heightAir tempDewpointWater temp
2018-Jan-10 07:33N 46°01' W 125°37'1 8.9
2018-Jan-10 07:26N 46°01' W 125°36'4 8.9
2018-Jan-10 06:58N 45°57' W 125°32'4 8.9
2018-Jan-10 06:29N 45°54' W 125°28'4 8.7
2018-Jan-10 06:00N 45°51' W 125°25'4 8.5
2018-Jan-10 05:30N 45°48' W 125°21'4 8.4
2018-Jan-10 05:00N 45°44' W 125°17'4 8.1
2018-Jan-10 04:30N 45°41' W 125°13'4 7.6
2018-Jan-10 04:00N 45°38' W 125°10'4 7.6
2018-Jan-10 03:30N 45°36' W 125°06'7 7.8
2018-Jan-10 02:33N 45°30' W 124°59'0 7.7
2018-Jan-10 02:30N 45°29' W 124°59'4 8.1
2018-Jan-10 02:00N 45°26' W 124°55'6 9.1
2018-Jan-10 01:22N 45°22' W 124°50'14 9.3
2018-Jan-09 23:51N 45°11' W 124°37'3 8.0
2018-Jan-09 23:30N 45°09' W 124°35'4 7.6
2018-Jan-09 22:58N 45°06' W 124°31'4 7.8
2018-Jan-09 22:27N 45°03' W 124°28'  
2018-Jan-03 00:43N 44°37' W 124°05'2 8.1
2018-Jan-03 00:29N 44°37' W 124°07'9 9.5
2018-Jan-02 23:32N 44°42' W 124°18'1 9.2
2018-Jan-02 23:25N 44°43' W 124°19'3 7.0
2018-Jan-02 22:58N 44°44' W 124°23'1 2.9
2018-Jan-02 22:31N 44°45' W 124°25'1 1.4
2018-Jan-02 22:00N 44°45' W 124°24'1 1.3
2018-Jan-02 21:31N 44°46' W 124°24'1 1.8
2018-Jan-02 21:00N 44°45' W 124°24'2 3.2
2018-Jan-02 20:31N 44°45' W 124°22'5 8.6
2018-Jan-02 19:59N 44°42' W 124°16'510.1
2018-Jan-02 19:30N 44°39' W 124°11'5 9.8
2018-Jan-02 18:58N 44°37' W 124°05'  

Dump ship's entire track history